Time;durP1;ratioP1;P1;durP2;ratioP2;P2;SDS_P1;SDS_P2;PMS_P1;PMS_P2;Temp;Humidity;BMP_temperature;BMP_pressure;BME280_temperature;BME280_humidity;BME280_pressure;Samples;Min_cycle;Max_cycle;Signal;HPM_P1;HPM_P2
2022/10/08 00:01:06;;;;;;;9.50;2.47;;;12.50;99.90;;;;;;5029540;28;20120;-72
2022/10/08 00:03:37;;;;;;;14.85;2.30;;;12.50;99.90;;;;;;5028673;28;20397;-72
2022/10/08 00:06:08;;;;;;;7.95;2.40;;;12.50;99.90;;;;;;5013942;28;20054;-72
2022/10/08 00:08:39;;;;;;;13.57;2.70;;;12.50;99.90;;;;;;5023194;28;20525;-72
2022/10/08 00:11:10;;;;;;;17.10;2.63;;;12.50;99.90;;;;;;5032149;28;20057;-73
2022/10/08 00:13:40;;;;;;;13.15;2.35;;;12.50;99.90;;;;;;5032126;28;20058;-72
2022/10/08 00:16:13;;;;;;;12.85;2.00;;;12.50;99.90;;;;;;5030382;28;20052;-72
2022/10/08 00:18:43;;;;;;;15.40;2.00;;;12.50;99.90;;;;;;5021420;28;20192;-73
2022/10/08 00:21:15;;;;;;;14.52;2.05;;;12.50;99.90;;;;;;5014206;28;20058;-73
2022/10/08 00:23:43;;;;;;;14.87;2.10;;;12.40;99.90;;;;;;5025367;28;20045;-73
2022/10/08 00:26:11;;;;;;;9.27;2.05;;;12.40;99.90;;;;;;5030491;28;20675;-73
2022/10/08 00:28:42;;;;;;;16.75;2.80;;;12.40;99.90;;;;;;5028032;28;20041;-73
2022/10/08 00:31:14;;;;;;;16.20;2.10;;;12.40;99.90;;;;;;5048826;28;20529;-73
2022/10/08 00:33:41;;;;;;;13.23;2.75;;;12.30;99.90;;;;;;5029840;28;20099;-73
2022/10/08 00:36:11;;;;;;;12.55;2.35;;;12.40;99.90;;;;;;5031210;28;20421;-73
2022/10/08 00:38:40;;;;;;;15.05;2.80;;;12.30;99.90;;;;;;5032397;28;20148;-73
2022/10/08 00:41:18;;;;;;;12.13;2.13;;;12.30;99.90;;;;;;5014073;28;20092;-73
2022/10/08 00:43:48;;;;;;;7.85;1.67;;;12.30;99.90;;;;;;5014547;28;20095;-73
2022/10/08 00:46:25;;;;;;;11.35;2.00;;;12.30;99.90;;;;;;5029876;28;20096;-73
2022/10/08 00:49:01;;;;;;;18.67;3.63;;;12.30;99.90;;;;;;5034642;28;20056;-73
2022/10/08 00:51:29;;;;;;;9.10;2.40;;;12.30;99.90;;;;;;5029662;28;20448;-73
2022/10/08 00:53:57;;;;;;;12.05;2.15;;;12.30;99.90;;;;;;5030208;28;20123;-73
2022/10/08 00:56:25;;;;;;;9.80;2.35;;;12.30;99.90;;;;;;5031554;28;20049;-73
2022/10/08 00:58:53;;;;;;;12.63;2.38;;;12.30;99.90;;;;;;5031461;28;20045;-73
2022/10/08 01:01:21;;;;;;;11.13;2.20;;;12.30;99.90;;;;;;5005951;28;20053;-73
2022/10/08 01:03:49;;;;;;;12.77;2.85;;;12.30;99.90;;;;;;5030285;28;20080;-73
2022/10/08 01:06:26;;;;;;;8.10;2.30;;;12.30;99.90;;;;;;5030243;28;20425;-73
2022/10/08 01:09:01;;;;;;;8.15;2.22;;;12.30;99.90;;;;;;5042577;28;20498;-74
2022/10/08 01:11:45;;;;;;;12.38;2.22;;;12.40;99.90;;;;;;5031081;28;20056;-73
2022/10/08 01:14:26;;;;;;;14.73;2.35;;;12.40;99.90;;;;;;5029657;28;20053;-73
2022/10/08 01:17:07;;;;;;;7.85;1.65;;;12.30;99.90;;;;;;5030306;28;20076;-73
2022/10/08 01:20:03;;;;;;;7.18;2.33;;;12.30;99.90;;;;;;5027621;28;20136;-73
2022/10/08 01:22:50;;;;;;;13.43;2.22;;;12.30;99.90;;;;;;5027017;28;20053;-73
2022/10/08 01:25:33;;;;;;;8.85;1.50;;;12.30;99.90;;;;;;5031623;28;20112;-73
2022/10/08 01:28:10;;;;;;;12.50;2.25;;;12.30;99.90;;;;;;5030069;28;20050;-73
2022/10/08 01:30:44;;;;;;;7.07;2.17;;;12.20;99.90;;;;;;5030925;28;20544;-73
2022/10/08 01:33:18;;;;;;;9.02;2.05;;;12.20;99.90;;;;;;5030736;28;20339;-73
2022/10/08 01:35:56;;;;;;;11.43;2.22;;;12.10;99.90;;;;;;5032420;28;20472;-73
2022/10/08 01:38:28;;;;;;;9.43;2.08;;;12.10;99.90;;;;;;5026726;28;20045;-72
2022/10/08 01:40:59;;;;;;;11.20;2.00;;;12.20;99.90;;;;;;5051734;28;20053;-73
2022/10/08 01:43:34;;;;;;;9.93;2.42;;;12.20;99.90;;;;;;5039954;28;20395;-73
2022/10/08 01:46:09;;;;;;;9.98;1.83;;;12.20;99.90;;;;;;5029038;28;20068;-73
2022/10/08 01:48:42;;;;;;;10.55;2.10;;;12.20;99.90;;;;;;5031443;28;20049;-73
2022/10/08 01:51:15;;;;;;;9.15;2.15;;;12.20;99.90;;;;;;5030864;28;20044;-73
2022/10/08 01:53:46;;;;;;;3.35;1.13;;;12.20;99.90;;;;;;5030751;28;20084;-73
2022/10/08 01:56:19;;;;;;;15.48;2.33;;;12.20;99.90;;;;;;5031792;28;20041;-73
2022/10/08 01:58:54;;;;;;;12.95;2.55;;;12.20;99.90;;;;;;5047083;28;20049;-73
2022/10/08 02:01:29;;;;;;;6.10;1.67;;;12.10;99.90;;;;;;5030583;28;20136;-73
2022/10/08 02:06:47;;;;;;;11.77;2.03;;;12.00;99.90;;;;;;5023741;28;20460;-72
2022/10/08 02:09:15;;;;;;;8.27;2.05;;;11.90;99.90;;;;;;5031858;28;20492;-73
2022/10/08 02:11:42;;;;;;;9.35;1.83;;;12.00;99.90;;;;;;5032067;28;20516;-73
2022/10/08 02:14:11;;;;;;;5.82;1.95;;;12.00;99.90;;;;;;5029263;28;20492;-73
2022/10/08 02:16:48;;;;;;;10.98;2.40;;;12.00;99.90;;;;;;5030014;28;20063;-73
2022/10/08 02:19:24;;;;;;;8.68;1.98;;;12.00;99.90;;;;;;5019509;28;20376;-73
2022/10/08 02:21:53;;;;;;;5.93;1.60;;;12.00;99.90;;;;;;5010565;28;20054;-74
2022/10/08 02:24:28;;;;;;;4.75;1.50;;;12.00;99.90;;;;;;5022124;28;20076;-73
2022/10/08 02:26:58;;;;;;;9.73;1.77;;;12.00;99.90;;;;;;5031183;28;20053;-73
2022/10/08 02:29:32;;;;;;;8.43;1.50;;;12.00;99.90;;;;;;5030036;28;20057;-73
2022/10/08 02:32:06;;;;;;;10.15;1.95;;;12.00;99.90;;;;;;5040452;28;20049;-73
2022/10/08 02:34:38;;;;;;;5.20;2.00;;;12.00;99.90;;;;;;5041052;28;20493;-73
2022/10/08 02:37:16;;;;;;;9.67;2.33;;;11.90;99.90;;;;;;5030871;28;20080;-74
2022/10/08 02:40:03;;;;;;;8.93;2.20;;;11.90;99.90;;;;;;5030163;28;20532;-73
2022/10/08 02:42:35;;;;;;;8.35;1.85;;;11.90;99.90;;;;;;5027934;28;20133;-72
2022/10/08 02:45:10;;;;;;;5.82;1.52;;;11.90;99.90;;;;;;5044636;28;20128;-72
2022/10/08 02:47:41;;;;;;;7.80;2.13;;;11.90;99.90;;;;;;5029779;28;20343;-72
2022/10/08 02:50:13;;;;;;;7.93;2.50;;;11.90;99.90;;;;;;5030863;28;20437;-72
2022/10/08 02:52:43;;;;;;;10.25;2.22;;;11.90;99.90;;;;;;5026895;28;20049;-72
2022/10/08 02:55:22;;;;;;;8.73;2.78;;;11.90;99.90;;;;;;5041325;28;20099;-71
2022/10/08 02:57:57;;;;;;;11.20;2.53;;;11.90;99.90;;;;;;5050052;28;20461;-71
2022/10/08 03:00:33;;;;;;;6.40;1.65;;;11.90;99.90;;;;;;5038012;28;20052;-71
2022/10/08 03:03:10;;;;;;;9.75;2.17;;;11.90;99.90;;;;;;5030863;28;20107;-72
2022/10/08 03:05:39;;;;;;;6.63;1.90;;;11.90;99.90;;;;;;5027873;28;20050;-72
2022/10/08 03:08:09;;;;;;;5.75;2.15;;;11.90;99.90;;;;;;5046711;28;20126;-72
2022/10/08 03:10:39;;;;;;;7.78;2.15;;;11.90;99.90;;;;;;5026706;28;20045;-72
2022/10/08 03:13:07;;;;;;;8.30;2.15;;;11.90;99.90;;;;;;5030133;28;20135;-72
2022/10/08 03:15:37;;;;;;;12.80;2.05;;;11.80;99.90;;;;;;5029383;28;20421;-72
2022/10/08 03:18:08;;;;;;;5.10;1.73;;;11.80;99.90;;;;;;5028123;28;20049;-72
2022/10/08 03:20:44;;;;;;;9.50;2.15;;;11.80;99.90;;;;;;5028510;28;20572;-72
2022/10/08 03:23:18;;;;;;;7.68;2.70;;;11.80;99.90;;;;;;5029888;28;20388;-72
2022/10/08 03:25:45;;;;;;;13.50;2.40;;;11.80;99.90;;;;;;5029440;28;20418;-77
2022/10/08 03:28:13;;;;;;;10.15;2.40;;;11.80;99.90;;;;;;5026461;28;20267;-77
2022/10/08 03:30:41;;;;;;;12.00;2.72;;;11.90;99.90;;;;;;5028359;28;20131;-77
2022/10/08 03:33:09;;;;;;;7.90;1.98;;;11.90;99.90;;;;;;5027492;28;20052;-77
2022/10/08 03:35:36;;;;;;;13.70;3.03;;;11.80;99.90;;;;;;5029683;28;20673;-77
2022/10/08 03:38:03;;;;;;;7.30;1.95;;;11.80;99.90;;;;;;5028385;28;20235;-77
2022/10/08 03:40:30;;;;;;;10.80;3.10;;;11.80;99.90;;;;;;5029501;28;20081;-76
2022/10/08 03:42:58;;;;;;;5.80;1.85;;;11.70;99.90;;;;;;5034302;28;20049;-76
2022/10/08 03:45:25;;;;;;;8.32;1.90;;;11.80;99.90;;;;;;5044219;28;20047;-76
2022/10/08 03:47:54;;;;;;;9.98;2.45;;;11.70;99.90;;;;;;5026371;28;20041;-76
2022/10/08 03:50:21;;;;;;;7.68;2.10;;;11.60;99.90;;;;;;5032874;28;20500;-78
2022/10/08 03:52:48;;;;;;;10.77;2.53;;;11.60;99.90;;;;;;5032798;28;20136;-77
2022/10/08 03:55:16;;;;;;;15.00;2.13;;;11.50;99.90;;;;;;5027535;28;20590;-78
2022/10/08 03:57:44;;;;;;;6.55;1.90;;;11.50;99.90;;;;;;5031914;28;20166;-78
2022/10/08 04:00:13;;;;;;;9.88;3.38;;;11.50;99.90;;;;;;5033457;28;20564;-78
2022/10/08 04:02:40;;;;;;;12.77;3.08;;;11.40;99.90;;;;;;5033840;28;20080;-78
2022/10/08 04:05:09;;;;;;;9.52;2.55;;;11.40;99.90;;;;;;5033212;28;20382;-77
2022/10/08 04:07:37;;;;;;;10.00;2.80;;;11.30;99.90;;;;;;5031961;28;20063;-76
2022/10/08 04:10:05;;;;;;;10.80;2.53;;;11.20;99.90;;;;;;5034358;28;20104;-77
2022/10/08 04:12:32;;;;;;;11.48;2.65;;;11.20;99.90;;;;;;5048475;28;20463;-77
2022/10/08 04:15:00;;;;;;;10.00;2.88;;;11.10;99.90;;;;;;5045418;28;20456;-78
2022/10/08 04:17:27;;;;;;;13.88;2.50;;;11.00;99.90;;;;;;5032211;28;20045;-78
2022/10/08 04:20:12;;;;;;;11.95;2.58;;;11.00;99.90;;;;;;5031325;28;20103;-76
2022/10/08 04:22:40;;;;;;;7.07;2.10;;;10.90;99.90;;;;;;5046976;28;20053;-77
2022/10/08 04:25:08;;;;;;;10.65;3.10;;;10.80;99.90;;;;;;5034110;28;20077;-77
2022/10/08 04:27:35;;;;;;;7.13;2.70;;;10.80;99.90;;;;;;5033454;28;20495;-77
2022/10/08 04:30:03;;;;;;;10.63;3.00;;;10.70;99.90;;;;;;5031816;28;20079;-77
2022/10/08 04:32:30;;;;;;;11.20;2.53;;;10.70;99.90;;;;;;5033501;28;20041;-77
2022/10/08 04:34:58;;;;;;;9.13;2.10;;;10.70;99.90;;;;;;5029698;28;20421;-73
2022/10/08 04:37:27;;;;;;;9.25;2.42;;;10.60;99.90;;;;;;5031821;28;20045;-73
2022/10/08 04:39:54;;;;;;;8.13;2.45;;;10.60;99.90;;;;;;5032347;28;20042;-73
2022/10/08 04:42:22;;;;;;;9.45;2.95;;;10.60;99.90;;;;;;5028423;28;20115;-73
2022/10/08 04:44:50;;;;;;;10.57;2.28;;;10.50;99.90;;;;;;5033667;28;20045;-74
2022/10/08 04:47:19;;;;;;;8.40;2.10;;;10.60;99.90;;;;;;5030672;28;20454;-73
2022/10/08 04:49:48;;;;;;;14.98;2.85;;;10.60;99.90;;;;;;5032034;28;20060;-73
2022/10/08 04:52:17;;;;;;;10.18;2.33;;;10.60;99.90;;;;;;5030585;28;20075;-73
2022/10/08 04:54:46;;;;;;;8.35;2.38;;;10.60;99.90;;;;;;5030771;28;20506;-73
2022/10/08 04:57:14;;;;;;;10.50;3.22;;;10.60;99.90;;;;;;5029019;28;20067;-74
2022/10/08 04:59:41;;;;;;;7.18;2.30;;;10.50;99.90;;;;;;5026257;28;20058;-74
2022/10/08 05:02:10;;;;;;;9.55;2.30;;;10.60;99.90;;;;;;5027378;28;20050;-74
2022/10/08 05:04:38;;;;;;;9.43;2.20;;;10.60;99.90;;;;;;5040998;28;20497;-74
2022/10/08 05:07:05;;;;;;;4.45;2.65;;;10.60;99.90;;;;;;5045384;28;20041;-71
2022/10/08 05:09:32;;;;;;;11.63;2.78;;;10.70;99.90;;;;;;5031508;28;20045;-73
2022/10/08 05:12:01;;;;;;;8.95;2.38;;;10.70;99.90;;;;;;5028600;28;20080;-73
2022/10/08 05:14:28;;;;;;;13.82;2.45;;;10.70;99.90;;;;;;5029749;28;20510;-74
2022/10/08 05:16:56;;;;;;;9.00;2.60;;;10.80;99.90;;;;;;5042853;28;20057;-72
2022/10/08 05:19:23;;;;;;;6.20;2.47;;;10.80;99.90;;;;;;5047331;28;20165;-73
2022/10/08 05:21:50;;;;;;;9.95;2.30;;;10.90;99.90;;;;;;5029861;28;20049;-73
2022/10/08 05:24:18;;;;;;;10.30;3.05;;;10.90;99.90;;;;;;5027655;28;20509;-73
2022/10/08 05:26:45;;;;;;;11.27;2.85;;;10.90;99.90;;;;;;5028670;28;20136;-72
2022/10/08 05:29:14;;;;;;;7.38;2.40;;;10.90;99.90;;;;;;5034376;28;20049;-73
2022/10/08 05:31:41;;;;;;;8.52;2.60;;;11.00;99.90;;;;;;5007910;28;20460;-73
2022/10/08 05:34:14;;;;;;;5.85;2.25;;;11.00;99.90;;;;;;5017130;28;20049;-73
2022/10/08 05:36:42;;;;;;;4.70;1.98;;;11.00;99.90;;;;;;5030807;28;20057;-71
2022/10/08 05:39:11;;;;;;;7.68;2.85;;;11.00;99.90;;;;;;5030031;28;20051;-72
2022/10/08 05:41:38;;;;;;;10.43;2.72;;;11.10;99.90;;;;;;5030680;28;20073;-72
2022/10/08 05:44:07;;;;;;;14.02;2.85;;;11.10;99.90;;;;;;5029834;28;20046;-73
2022/10/08 05:46:38;;;;;;;12.82;2.45;;;11.10;99.90;;;;;;5032314;28;20084;-73
2022/10/08 05:49:08;;;;;;;8.70;2.60;;;11.20;99.90;;;;;;5028954;28;20053;-73
2022/10/08 05:51:37;;;;;;;8.63;2.58;;;11.20;99.90;;;;;;5021862;28;20045;-73
2022/10/08 05:54:04;;;;;;;9.80;2.85;;;11.20;99.90;;;;;;5031580;28;20536;-79
2022/10/08 05:56:32;;;;;;;12.00;3.08;;;11.30;99.90;;;;;;5028250;28;20052;-77
2022/10/08 05:58:59;;;;;;;10.45;2.50;;;11.30;99.90;;;;;;5032339;28;20091;-79
2022/10/08 06:01:30;;;;;;;8.45;2.90;;;11.30;99.90;;;;;;5044868;28;20103;-79
2022/10/08 06:04:00;;;;;;;15.93;2.58;;;11.30;99.90;;;;;;5013547;28;20050;-76
2022/10/08 06:06:28;;;;;;;5.72;2.28;;;11.30;99.90;;;;;;5016436;28;20104;-79
2022/10/08 06:08:59;;;;;;;8.50;2.67;;;11.40;99.90;;;;;;5030735;28;20061;-74
2022/10/08 06:11:28;;;;;;;11.98;2.72;;;11.40;99.90;;;;;;5028174;28;20493;-71
2022/10/08 06:13:57;;;;;;;7.72;3.92;;;11.50;99.90;;;;;;5030409;28;20069;-73
2022/10/08 06:16:26;;;;;;;14.30;4.22;;;11.50;99.90;;;;;;5010267;28;20042;-73
2022/10/08 06:18:54;;;;;;;9.77;4.18;;;11.60;99.90;;;;;;5029109;28;20046;-73
2022/10/08 06:21:25;;;;;;;7.63;2.53;;;11.60;99.90;;;;;;5028774;28;20081;-80
2022/10/08 06:23:56;;;;;;;10.82;2.67;;;11.70;99.90;;;;;;5029958;28;20068;-73
2022/10/08 06:26:26;;;;;;;6.88;2.97;;;11.80;99.90;;;;;;5028821;28;20536;-82
2022/10/08 06:28:54;;;;;;;4.63;2.35;;;11.80;99.90;;;;;;5030066;28;20084;-78
2022/10/08 06:31:21;;;;;;;8.95;2.97;;;11.80;99.90;;;;;;5038975;28;20156;-79
2022/10/08 06:33:49;;;;;;;9.43;3.10;;;11.90;99.90;;;;;;5029095;28;20425;-81
2022/10/08 06:36:19;;;;;;;5.65;2.15;;;11.90;99.90;;;;;;5012913;28;20434;-81
2022/10/08 06:38:51;;;;;;;12.27;2.58;;;12.00;99.90;;;;;;5028598;28;20160;-78
2022/10/08 06:41:19;;;;;;;6.97;2.80;;;12.00;99.90;;;;;;5029071;28;20399;-79
2022/10/08 06:43:47;;;;;;;9.95;2.00;;;12.10;99.90;;;;;;5024934;28;20580;-77
2022/10/08 06:46:15;;;;;;;5.05;2.42;;;12.20;99.90;;;;;;5027075;28;20057;-77
2022/10/08 06:48:42;;;;;;;7.95;2.55;;;12.30;99.90;;;;;;5040076;28;20048;-77
2022/10/08 06:51:12;;;;;;;8.55;2.70;;;12.40;99.90;;;;;;5022566;28;20060;-73
2022/10/08 06:53:42;;;;;;;7.53;3.03;;;12.50;99.90;;;;;;5021857;28;20128;-72
2022/10/08 06:56:16;;;;;;;11.55;3.38;;;12.50;99.90;;;;;;5026555;28;20098;-74
2022/10/08 06:58:46;;;;;;;9.00;2.08;;;12.60;99.90;;;;;;5028651;28;20073;-72
2022/10/08 07:01:16;;;;;;;9.40;2.13;;;12.70;99.90;;;;;;5021980;28;20041;-73
2022/10/08 07:03:48;;;;;;;11.07;2.47;;;12.80;99.90;;;;;;5024303;28;20136;-74
2022/10/08 07:06:16;;;;;;;9.93;2.83;;;13.00;99.90;;;;;;5029270;28;20417;-74
2022/10/08 07:08:43;;;;;;;8.73;2.42;;;13.30;99.90;;;;;;5027933;28;20144;-74
2022/10/08 07:11:14;;;;;;;5.68;2.63;;;13.50;99.90;;;;;;5028256;28;20112;-77
2022/10/08 07:13:42;;;;;;;8.07;2.55;;;13.50;99.90;;;;;;5024962;28;20057;-76
2022/10/08 07:16:13;;;;;;;16.85;4.85;;;13.50;99.90;;;;;;5028643;28;20052;-77
2022/10/08 07:18:41;;;;;;;8.68;2.65;;;13.50;99.90;;;;;;5030680;28;20087;-74
2022/10/08 07:21:11;;;;;;;13.85;2.28;;;13.60;99.90;;;;;;5029711;28;20140;-73
2022/10/08 07:23:39;;;;;;;5.28;2.67;;;13.60;99.90;;;;;;5030240;28;20084;-75
2022/10/08 07:26:10;;;;;;;10.90;3.03;;;13.40;99.90;;;;;;5030417;28;20057;-81
2022/10/08 07:28:42;;;;;;;9.45;2.70;;;13.20;99.90;;;;;;5010758;28;20049;-79
2022/10/08 07:31:16;;;;;;;4.10;2.30;;;13.00;99.90;;;;;;5012698;28;20505;-76
2022/10/08 07:33:44;;;;;;;8.63;3.28;;;12.90;99.90;;;;;;5027004;28;20045;-72
2022/10/08 07:36:15;;;;;;;18.88;3.85;;;12.90;99.90;;;;;;5027438;28;20046;-75
2022/10/08 07:38:43;;;;;;;11.20;2.50;;;12.90;99.90;;;;;;5019126;28;20412;-78
2022/10/08 07:41:13;;;;;;;7.90;2.67;;;12.90;99.90;;;;;;5017810;28;20065;-78
2022/10/08 07:43:42;;;;;;;6.15;2.63;;;12.90;99.90;;;;;;5027843;28;20555;-73
2022/10/08 07:46:12;;;;;;;11.20;2.72;;;13.10;99.90;;;;;;5027643;28;20132;-76
2022/10/08 07:48:40;;;;;;;5.80;2.08;;;13.40;99.90;;;;;;5028759;28;20080;-73
2022/10/08 07:51:10;;;;;;;14.52;2.97;;;13.70;99.90;;;;;;5026892;28;20049;-73
2022/10/08 07:53:38;;;;;;;5.63;2.58;;;14.40;99.90;;;;;;5026784;28;20049;-73
2022/10/08 07:56:08;;;;;;;8.00;2.65;;;15.10;99.90;;;;;;5022718;28;20121;-78
2022/10/08 07:58:36;;;;;;;3.55;2.70;;;16.10;99.90;;;;;;5026969;28;21545;-77
2022/10/08 08:01:07;;;;;;;9.00;2.85;;;16.80;99.90;;;;;;5023658;28;20119;-78
2022/10/08 08:03:35;;;;;;;11.27;2.63;;;17.60;99.90;;;;;;5029872;28;20053;-78
2022/10/08 08:06:05;;;;;;;5.45;2.60;;;18.40;99.90;;;;;;5028451;28;20037;-76
2022/10/08 08:08:32;;;;;;;8.68;3.00;;;18.80;99.90;;;;;;5028329;28;20068;-78
2022/10/08 08:11:01;;;;;;;8.98;2.90;;;18.70;99.90;;;;;;5028921;28;20068;-77
2022/10/08 08:13:30;;;;;;;8.60;3.13;;;18.80;99.90;;;;;;5028140;28;20053;-78
2022/10/08 08:15:58;;;;;;;8.32;2.85;;;19.30;99.90;;;;;;5012113;28;20087;-78
2022/10/08 08:18:30;;;;;;;10.07;3.50;;;19.30;99.90;;;;;;5027587;28;20049;-77
2022/10/08 08:20:59;;;;;;;15.77;3.63;;;19.40;99.90;;;;;;5029533;28;20061;-79
2022/10/08 08:23:29;;;;;;;11.95;3.28;;;20.00;99.90;;;;;;5010046;28;20046;-78
2022/10/08 08:26:01;;;;;;;7.22;3.30;;;20.50;99.90;;;;;;5010685;28;20057;-77
2022/10/08 08:28:29;;;;;;;7.22;2.97;;;20.90;97.60;;;;;;5029624;28;20132;-76
2022/10/08 08:31:07;;;;;;;7.32;3.05;;;21.00;96.20;;;;;;5032350;28;20460;-78
2022/10/08 08:33:35;;;;;;;7.40;2.60;;;20.80;95.50;;;;;;5032676;28;20042;-77
2022/10/08 08:36:04;;;;;;;7.22;2.28;;;19.90;96.10;;;;;;5031391;28;20192;-77
2022/10/08 08:38:31;;;;;;;9.35;2.30;;;19.50;97.10;;;;;;5035450;28;20040;-77
2022/10/08 08:41:11;;;;;;;5.82;2.17;;;19.40;97.50;;;;;;5030016;28;20062;-74
2022/10/08 08:43:39;;;;;;;8.05;2.42;;;19.20;98.20;;;;;;5028455;28;20057;-73
2022/10/08 08:46:06;;;;;;;10.02;2.58;;;19.30;97.80;;;;;;5030246;28;20414;-73
2022/10/08 08:48:37;;;;;;;7.40;2.20;;;19.60;96.90;;;;;;5029313;28;20132;-74
2022/10/08 08:51:05;;;;;;;6.30;2.50;;;19.60;96.70;;;;;;5027701;28;20059;-72
2022/10/08 08:53:34;;;;;;;7.85;2.72;;;19.50;96.60;;;;;;5029860;28;20457;-73
2022/10/08 08:56:08;;;;;;;7.50;2.67;;;19.60;96.80;;;;;;5030832;28;20049;-73
2022/10/08 08:58:42;;;;;;;4.70;2.47;;;19.60;96.20;;;;;;5013101;28;20064;-73
2022/10/08 09:01:24;;;;;;;10.77;3.38;;;19.70;95.60;;;;;;5011966;28;20050;-73
2022/10/08 09:03:56;;;;;;;5.65;2.28;;;19.20;96.30;;;;;;5013602;28;20332;-72
2022/10/08 09:06:25;;;;;;;11.13;3.40;;;18.90;97.00;;;;;;5031259;28;20057;-74
2022/10/08 09:08:59;;;;;;;10.48;2.38;;;18.60;97.30;;;;;;5030874;28;20046;-73
2022/10/08 09:11:29;;;;;;;7.20;2.75;;;18.20;98.00;;;;;;5033433;28;20052;-74
2022/10/08 09:14:13;;;;;;;10.13;3.00;;;17.50;99.40;;;;;;5025639;28;20053;-74
2022/10/08 09:16:41;;;;;;;12.13;3.38;;;17.00;99.90;;;;;;5030234;28;20406;-75
2022/10/08 09:19:11;;;;;;;16.15;2.90;;;17.10;99.90;;;;;;5026559;28;20071;-73
2022/10/08 09:21:38;;;;;;;9.18;2.72;;;17.20;99.90;;;;;;5024190;28;20050;-73
2022/10/08 09:24:05;;;;;;;11.35;3.35;;;17.00;99.90;;;;;;5026769;28;20104;-74
2022/10/08 09:26:35;;;;;;;12.63;2.60;;;16.70;99.90;;;;;;5029242;28;20184;-75
2022/10/08 09:29:05;;;;;;;4.22;2.25;;;16.40;99.90;;;;;;5024617;28;20058;-73
2022/10/08 09:31:42;;;;;;;13.93;3.42;;;16.40;99.90;;;;;;5028258;28;20079;-73
2022/10/08 09:34:19;;;;;;;6.78;2.95;;;16.20;99.90;;;;;;5025318;28;20049;-74
2022/10/08 09:36:51;;;;;;;9.80;3.05;;;16.20;99.90;;;;;;5024678;28;20048;-75
2022/10/08 09:39:20;;;;;;;7.65;2.47;;;16.40;99.90;;;;;;5025192;28;20133;-74
2022/10/08 09:42:12;;;;;;;9.95;3.58;;;16.60;99.90;;;;;;5023823;28;20037;-75
2022/10/08 09:44:42;;;;;;;5.38;2.30;;;16.80;99.90;;;;;;5028622;28;20045;-76
2022/10/08 09:47:13;;;;;;;8.52;2.65;;;16.80;99.90;;;;;;5023886;28;20462;-74
2022/10/08 09:49:43;;;;;;;12.20;3.05;;;17.00;99.90;;;;;;5027304;28;20049;-75
2022/10/08 09:52:19;;;;;;;11.57;2.75;;;17.20;99.90;;;;;;5023910;28;20555;-74
2022/10/08 09:54:51;;;;;;;8.13;2.70;;;17.60;99.90;;;;;;5039112;28;20048;-74
2022/10/08 09:57:21;;;;;;;13.57;2.93;;;17.90;99.90;;;;;;5026426;28;20061;-75
2022/10/08 09:59:52;;;;;;;9.07;2.88;;;17.50;99.90;;;;;;5025362;28;20046;-73
2022/10/08 10:02:32;;;;;;;5.90;2.35;;;17.00;99.90;;;;;;5027148;28;20050;-75
2022/10/08 10:05:04;;;;;;;10.27;2.17;;;16.90;99.90;;;;;;5026507;28;20045;-74
2022/10/08 10:07:41;;;;;;;7.75;2.53;;;16.70;99.90;;;;;;5026390;28;20049;-74
2022/10/08 10:10:17;;;;;;;7.72;2.88;;;17.00;99.90;;;;;;5025971;28;20046;-74
2022/10/08 10:12:49;;;;;;;8.77;3.17;;;17.10;99.90;;;;;;5024854;28;20058;-74
2022/10/08 10:15:22;;;;;;;7.78;2.08;;;17.30;99.90;;;;;;5024420;28;20112;-75
2022/10/08 10:17:54;;;;;;;7.70;2.60;;;17.30;99.90;;;;;;5025907;28;20161;-75
2022/10/08 10:20:30;;;;;;;3.72;2.45;;;17.30;99.90;;;;;;5025942;28;20119;-73
2022/10/08 10:23:02;;;;;;;5.60;2.30;;;17.30;99.90;;;;;;5024887;28;20056;-75
2022/10/08 10:25:37;;;;;;;5.95;2.20;;;17.00;99.90;;;;;;5024935;28;20127;-74
2022/10/08 10:28:10;;;;;;;5.82;2.53;;;17.10;99.90;;;;;;5026670;28;20091;-76
2022/10/08 10:30:51;;;;;;;9.35;2.40;;;17.30;99.90;;;;;;5028235;28;20045;-74
2022/10/08 10:33:24;;;;;;;6.90;2.53;;;17.40;99.90;;;;;;5023791;28;20069;-74
2022/10/08 10:35:59;;;;;;;4.93;2.33;;;17.60;99.90;;;;;;5026875;28;20059;-74
2022/10/08 10:38:29;;;;;;;5.05;2.13;;;17.90;99.90;;;;;;5023916;28;20509;-74
2022/10/08 10:41:11;;;;;;;4.13;2.03;;;18.10;99.90;;;;;;5025704;28;20579;-76
2022/10/08 10:43:47;;;;;;;12.20;3.10;;;18.20;99.90;;;;;;5023123;28;20053;-76
2022/10/08 10:46:28;;;;;;;8.70;2.28;;;18.20;99.90;;;;;;5023671;28;20045;-75
2022/10/08 10:48:56;;;;;;;17.52;3.35;;;17.90;99.90;;;;;;5023407;28;20045;-74
2022/10/08 10:51:50;;;;;;;12.23;2.83;;;17.60;99.90;;;;;;5025663;28;20045;-76
2022/10/08 10:54:55;;;;;;;4.28;2.30;;;17.20;99.90;;;;;;5026391;28;20551;-74
2022/10/08 10:57:39;;;;;;;9.98;2.40;;;16.80;99.90;;;;;;5021624;28;20053;-75
2022/10/08 11:00:15;;;;;;;8.57;3.05;;;16.50;99.90;;;;;;5025070;28;20049;-75
2022/10/08 11:02:50;;;;;;;6.90;2.45;;;16.50;99.90;;;;;;5025897;28;20057;-75
2022/10/08 11:05:22;;;;;;;11.75;2.72;;;16.40;99.90;;;;;;5024588;28;20096;-75
2022/10/08 11:08:11;;;;;;;9.70;2.42;;;16.30;99.90;;;;;;5025435;28;20416;-75
2022/10/08 11:10:53;;;;;;;8.32;2.50;;;16.30;99.90;;;;;;5026145;28;20350;-76
2022/10/08 11:13:42;;;;;;;18.27;3.20;;;16.30;99.90;;;;;;5027176;28;20143;-74
2022/10/08 11:16:26;;;;;;;7.95;3.75;;;16.40;99.90;;;;;;5024634;28;20046;-75
2022/10/08 11:18:57;;;;;;;8.98;2.60;;;16.60;99.90;;;;;;5027103;28;20136;-76
2022/10/08 11:21:43;;;;;;;7.32;3.05;;;16.60;99.90;;;;;;5026021;28;20057;-75
2022/10/08 11:24:31;;;;;;;7.60;2.33;;;16.90;99.90;;;;;;5022109;28;20170;-76
2022/10/08 11:27:10;;;;;;;8.18;2.60;;;17.50;99.90;;;;;;5024480;28;20099;-76
2022/10/08 11:29:45;;;;;;;7.18;2.88;;;18.20;99.90;;;;;;5025810;28;20489;-75
2022/10/08 11:32:16;;;;;;;7.80;2.30;;;18.80;99.90;;;;;;5024606;28;20525;-76
2022/10/08 11:34:52;;;;;;;8.80;2.92;;;19.30;99.10;;;;;;5025256;28;20052;-76
2022/10/08 11:37:28;;;;;;;6.05;2.58;;;19.60;97.40;;;;;;5026972;28;20049;-76
2022/10/08 11:40:07;;;;;;;8.20;2.40;;;19.40;97.20;;;;;;5027188;28;20045;-75
2022/10/08 11:42:42;;;;;;;5.82;2.50;;;18.80;97.60;;;;;;5025006;28;20053;-76
2022/10/08 11:45:33;;;;;;;7.70;2.30;;;18.30;98.40;;;;;;5026737;28;20077;-76
2022/10/08 11:48:02;;;;;;;9.63;2.90;;;18.00;99.60;;;;;;5024258;28;20440;-75
2022/10/08 11:50:33;;;;;;;7.20;2.67;;;17.80;99.90;;;;;;5026816;28;20056;-75
2022/10/08 11:53:16;;;;;;;13.88;3.20;;;17.60;99.90;;;;;;5022943;28;20046;-75
2022/10/08 11:55:54;;;;;;;6.00;2.20;;;17.50;99.90;;;;;;5026329;28;20096;-76
2022/10/08 11:58:26;;;;;;;8.25;2.47;;;17.50;99.90;;;;;;5025887;28;20152;-75
2022/10/08 12:01:04;;;;;;;8.48;2.53;;;17.40;99.90;;;;;;5024519;28;20052;-77
2022/10/08 12:03:35;;;;;;;8.82;2.60;;;17.40;99.90;;;;;;5029558;28;20049;-74
2022/10/08 12:06:17;;;;;;;9.87;2.70;;;17.40;99.90;;;;;;5029771;28;20563;-76
2022/10/08 12:08:58;;;;;;;5.32;2.55;;;17.30;99.90;;;;;;5029703;28;20531;-77
2022/10/08 12:11:52;;;;;;;8.68;3.03;;;17.20;99.90;;;;;;5027341;28;20132;-76
2022/10/08 12:14:45;;;;;;;5.28;2.60;;;17.20;99.90;;;;;;5029373;28;20041;-77
2022/10/08 12:17:13;;;;;;;4.63;2.20;;;17.20;99.90;;;;;;5030269;28;20049;-75
2022/10/08 12:20:18;;;;;;;6.70;2.00;;;17.20;99.90;;;;;;5028447;28;20144;-75
2022/10/08 12:23:06;;;;;;;5.55;2.03;;;17.00;99.90;;;;;;5010931;28;20045;-77
2022/10/08 12:25:40;;;;;;;6.57;2.53;;;16.90;99.90;;;;;;5029302;28;20049;-75
2022/10/08 12:28:49;;;;;;;6.05;2.35;;;16.80;99.90;;;;;;5030655;28;20056;-77
2022/10/08 12:31:34;;;;;;;10.77;2.65;;;16.70;99.90;;;;;;5030392;28;20084;-76
2022/10/08 12:34:14;;;;;;;4.07;2.38;;;16.70;99.90;;;;;;5030893;28;20516;-81
2022/10/08 12:36:53;;;;;;;6.53;2.22;;;17.00;99.90;;;;;;5030966;28;20041;-80
2022/10/08 12:39:34;;;;;;;5.97;2.30;;;17.10;99.90;;;;;;5027518;28;20105;-80
2022/10/08 12:42:14;;;;;;;7.13;2.45;;;17.00;99.90;;;;;;5029670;28;20148;-81
2022/10/08 12:45:03;;;;;;;12.07;2.63;;;17.00;99.90;;;;;;5028815;28;20476;-76
2022/10/08 12:47:44;;;;;;;10.48;2.55;;;16.90;99.90;;;;;;5027638;28;20049;-76
2022/10/08 12:50:53;;;;;;;4.95;2.28;;;17.00;99.90;;;;;;5028565;28;20351;-76
2022/10/08 12:53:21;;;;;;;9.10;2.75;;;17.40;99.90;;;;;;4985272;28;20054;-76
2022/10/08 12:55:53;;;;;;;6.75;2.30;;;17.50;99.90;;;;;;4987817;28;20133;-74
2022/10/08 12:58:24;;;;;;;7.65;2.38;;;17.60;99.90;;;;;;5007830;28;20077;-76
2022/10/08 13:00:57;;;;;;;4.95;2.67;;;17.50;99.90;;;;;;5028963;28;20053;-75
2022/10/08 13:03:24;;;;;;;12.00;2.60;;;17.20;99.90;;;;;;5027755;28;20049;-76
2022/10/08 13:05:57;;;;;;;6.80;2.10;;;17.10;99.90;;;;;;5027757;28;20060;-73
2022/10/08 13:08:33;;;;;;;8.20;2.50;;;17.20;99.90;;;;;;5029114;28;20048;-74
2022/10/08 13:11:05;;;;;;;5.35;2.42;;;17.40;99.80;;;;;;5026769;28;20048;-78
2022/10/08 13:13:44;;;;;;;4.78;2.30;;;17.70;99.40;;;;;;5032176;28;20049;-78